• Join FlightAware (Why Join?)
  • Login
  • US Flag 
03:45AM EDT


 

Airport Tracker/Info


-or-


 

Live Flight TrackerFlight Track Log ✈ SWA2975 ✈ 26-Jun-2013 ✈ KMDW - KALB

Flight Track Log - Related Links

Times and Time Zones

All times are in EDT time to prevent confusion due to time zone crossing. See the SWA2975 flight status page for this flight to view local times or setup timezone preferences in your user account.

Time Position Orientation Groundspeed Altitude Reporting Facility
EDT Latitude Longitude Course Direction KTS MPH feet Rate Location/Type
02:38AM 41.8080 -87.7740 342° North 164 189 2,400  Level FlightAware
02:38AM 41.8220 -87.7590 39° Northeast 207 238 2,800 1,140 Climbing FlightAware
02:38AM 41.8240 -87.7430 80° East 228 262 3,100 2,400 Climbing FlightAware
02:39AM 41.8200 -87.7020 97° East 246 283 4,400 2,640 Climbing FlightAware
02:39AM 41.8160 -87.6610 97° East 270 311 5,500 3,000 Climbing FlightAware
02:40AM 41.8120 -87.6110 96° East 274 315 7,200 3,060 Climbing FlightAware
02:40AM 41.8080 -87.5650 97° East 289 333 8,400 2,700 Climbing FlightAware
02:41AM 41.8060 -87.5140 93° East 297 342 9,700 2,160 Climbing FlightAware
02:41AM 41.8130 -87.4280 84° East 342 394 11,100 2,040 Climbing FlightAware
02:42AM 41.8200 -87.3380 84° East 367 422 12,600 2,340 Climbing FlightAware
02:43AM 41.8280 -87.2450 83° East 385 443 14,300 2,520 Climbing FlightAware
02:43AM 41.8360 -87.1400 84° East 397 457 16,200 2,580 Climbing FlightAware
02:44AM 41.8440 -87.0360 84° East 403 464 18,000 2,460 Climbing FlightAware
02:45AM 41.8520 -86.9350 84° East 407 468 19,700 2,400 Climbing FlightAware
02:45AM 41.8640 -86.8260 82° East 415 478 21,300 1,920 Climbing FlightAware
02:46AM 41.8780 -86.7160 80° East 430 495 22,500 1,680 Climbing FlightAware
02:47AM 41.8900 -86.6170 81° East 439 505 23,600 1,920 Climbing FlightAware
02:48AM 41.9070 -86.4850 80° East 445 512 25,200 1,920 Climbing FlightAware
02:48AM 41.9190 -86.3800 81° East 449 517 26,400 1,680 Climbing FlightAware
02:49AM 41.9340 -86.2570 81° East 457 526 27,600 1,440 Climbing FlightAware
02:50AM 41.9490 -86.1340 81° East 466 536 28,500 1,260 Climbing FlightAware
02:50AM 41.9640 -86.0130 80° East 475 547 29,400 1,200 Climbing FlightAware
02:51AM 41.9770 -85.8980 81° East 483 556 30,200 1,440 Climbing FlightAware
02:52AM 41.9910 -85.7830 81° East 480 552 31,300 1,560 Climbing FlightAware
02:52AM 42.0060 -85.6480 81° East 478 550 32,500 1,440 Climbing FlightAware
02:53AM 42.0200 -85.5320 81° East 477 549 33,400 1,320 Climbing FlightAware
02:54AM 42.0340 -85.4100 81° East 479 551 34,300 1,140 Climbing FlightAware
02:55AM 42.0470 -85.2910 82° East 478 550 35,000 480 Climbing FlightAware
02:55AM 42.0620 -85.1600 81° East 475 547 35,000  Level FlightAware
02:56AM 42.0750 -85.0340 82° East 473 544 35,000  Level FlightAware
02:57AM 42.0890 -84.9080 81° East 470 541 35,000  Level FlightAware
02:57AM 42.1000 -84.8060 82° East 466 536 35,000  Level FlightAware
02:58AM 42.1140 -84.6720 82° East 464 534 35,000  Level FlightAware
02:59AM 42.1270 -84.5520 82° East 464 534 35,000 60 Level FlightAware
02:59AM 42.1370 -84.4570 82° East 475 547 35,100 480 Climbing FlightAware
03:03AM 42.1950 -83.8910 82° East 475 547 37,000 420 Climbing FlightAware
03:03AM 42.2090 -83.7560 82° East 475 547 37,000  Level FlightAware
03:04AM 42.2220 -83.6220 82° East 475 547 37,000  Level FlightAware
03:05AM 42.2330 -83.5030 83° East 475 547 37,000  Level FlightAware
03:06AM 42.2460 -83.3690 82° East 474 545 37,000  Level FlightAware
03:06AM 42.2570 -83.2530 83° East 473 544 37,000  Level FlightAware
03:07AM 42.2690 -83.1180 83° East 473 544 37,000  Level FlightAware
03:08AM 42.2800 -83.0070 82° East 472 543 37,000  Level FlightAware
03:08AM 42.2890 -82.8990 84° East 473 544 37,000  Level FlightAware
03:09AM 42.3020 -82.7610 83° East 474 545 37,000  Level FlightAware
03:10AM 42.3120 -82.6440 83° East 475 547 37,000  Level FlightAware
03:10AM 42.3240 -82.5130 83° East 476 548 37,000  Level FlightAware
03:11AM 42.3340 -82.3890 84° East 479 551 37,000  Level FlightAware
03:12AM 42.3460 -82.2600 83° East 482 555 37,000  Level FlightAware
03:12AM 42.3550 -82.1450 84° East 485 558 37,000  Level FlightAware
03:13AM 42.3630 -82.0540 83° East 486 559 37,000  Level FlightAware
03:14AM 42.3750 -81.9060 84° East 489 563 37,000  Level FlightAware
03:14AM 42.3830 -81.8060 84° East 489 563 37,000  Level FlightAware
03:15AM 42.3940 -81.6780 83° East 489 563 37,000  Level FlightAware
03:17AM 42.4180 -81.3620 84° East 487 560 37,000  Level FlightAware
03:18AM 42.4270 -81.2490 84° East 486 559 37,000  Level FlightAware
03:18AM 42.4360 -81.1240 84° East 485 558 37,000  Level FlightAware
03:19AM 42.4470 -80.9780 84° East 482 555 37,000  Level FlightAware
03:20AM 42.4610 -80.7890 84° East 481 554 37,000  Level FlightAware
03:21AM 42.4690 -80.6680 85° East 479 551 37,000  Level FlightAware
03:21AM 42.4780 -80.5390 85° East 478 550 37,000  Level FlightAware
03:22AM 42.4870 -80.4070 85° East 477 549 37,000  Level FlightAware
03:23AM 42.4950 -80.2950 84° East 476 548 37,000  Level FlightAware
03:23AM 42.5040 -80.1630 85° East 477 549 37,000  Level FlightAware
03:24AM 42.5120 -80.0320 85° East 479 551 37,000  Level FlightAware
03:25AM 42.5200 -79.9080 85° East 481 554 37,000  Level FlightAware
03:26AM 42.5280 -79.7850 85° East 480 552 37,000  Level FlightAware
03:26AM 42.5360 -79.6600 85° East 481 554 37,000  Level FlightAware
03:27AM 42.5440 -79.5240 85° East 480 552 37,000  Level FlightAware
03:28AM 42.5510 -79.4080 85° East 479 551 37,000  Level FlightAware
03:28AM 42.5580 -79.2900 85° East 478 550 37,000  Level FlightAware
03:29AM 42.5660 -79.1530 85° East 479 551 37,000  Level FlightAware
03:29AM 42.5700 -79.0810 86° East 479 551 37,000  Level FlightAware
03:32AM 42.5950 -78.6320 86° East 477 549 37,000  Level FlightAware
03:33AM 42.6010 -78.5150 86° East 476 548 37,000  Level FlightAware
03:33AM 42.6070 -78.4020 86° East 477 549 37,000  Level FlightAware
03:34AM 42.6140 -78.2640 86° East 477 549 37,000  Level FlightAware
03:35AM 42.6190 -78.1470 87° East 476 548 37,000  Level FlightAware
03:35AM 42.6250 -78.0270 86° East 475 547 37,000  Level FlightAware
03:36AM 42.6310 -77.9030 86° East 475 547 37,000  Level FlightAware
03:37AM 42.6380 -77.7610 86° East 474 545 37,000  Level FlightAware
03:38AM 42.6430 -77.6450 87° East 474 545 37,000  Level FlightAware
03:38AM 42.6480 -77.5190 87° East 474 545 37,000  Level FlightAware
03:39AM 42.6540 -77.3890 86° East 475 547 37,000  Level FlightAware
03:40AM 42.6580 -77.2700 87° East 476 548 37,000  Level FlightAware
03:40AM 42.6630 -77.1440 87° East 477 549 37,000  Level FlightAware
03:41AM 42.6680 -77.0200 87° East 477 549 37,000  Level FlightAware
03:42AM 42.6730 -76.9000 87° East 476 548 37,000 -480 Level FlightAware
03:42AM 42.6780 -76.7680 87° East 469 540 36,400 -1,620 Descending FlightAware
03:43AM 42.6820 -76.6440 87° East 469 540 34,700 -2,340 Descending FlightAware
03:44AM 42.6860 -76.5160 88° East 462 532 33,100 -2,100 Descending FlightAware
03:45AM 42.6900 -76.4010 87° East 456 525 31,800 -1,980 Descending FlightAware
03:45AM 42.6940 -76.2840 87° East 449 517 30,400 -1,980 Descending FlightAware
03:46AM 42.6980 -76.1610 87° East 442 509 29,000 -1,980 Descending FlightAware
03:47AM 42.7010 -76.0440 88° East 434 499 27,600 -1,980 Descending FlightAware
03:47AM 42.7040 -75.9460 88° East 426 490 26,400 -1,980 Descending FlightAware
03:48AM 42.7080 -75.8300 87° East 417 480 25,000 -1,920 Descending FlightAware
03:49AM 42.7110 -75.7150 88° East 407 468 23,600 -1,920 Descending FlightAware
03:49AM 42.7140 -75.6030 88° East 398 458 22,200 -1,920 Descending FlightAware
03:50AM 42.7170 -75.5090 87° East 391 450 21,000 -1,800 Descending FlightAware
03:51AM 42.7190 -75.4000 89° East 382 440 19,700 -1,680 Descending FlightAware
03:51AM 42.7210 -75.3110 88° East 374 430 18,700 -2,040 Descending FlightAware
03:52AM 42.7240 -75.2020 88° East 379 436 16,900 -1,980 Descending FlightAware
03:53AM 42.7260 -75.1030 88° East 365 420 15,800 -1,740 Descending FlightAware
03:54AM 42.7280 -75.0120 88° East 357 411 14,600 -1,920 Descending FlightAware
03:54AM 42.7300 -74.9240 88° East 355 409 13,300 -1,020 Descending FlightAware
03:55AM 42.7310 -74.8480 89° East 355 409 13,300  Level FlightAware
03:56AM 42.7340 -74.7550 87° East 355 409 13,300 -1,440 Level FlightAware
03:57AM 42.7333 -74.6506 87° East 313 360 11,000 -1,740 Descending Boston Center
03:57AM 42.7344 -74.5828 89° East 315 362 11,000 -1,260 Level Boston Center
03:58AM 42.7367 -74.4725 88° East 290 334 9,100 -1,680 Descending Boston Center
03:59AM 42.7364 -74.3622 90° East 290 334 7,700 -1,620 Descending Boston Center
04:00AM 42.7400 -74.2606 87° East 282 325 5,900 -1,680 Descending Boston Center
04:01AM 42.7417 -74.1589 89° East 271 312 4,400 -1,620 Descending Boston Center
04:02AM 42.7425 -74.1136 89° East 267 307 3,500 -1,320 Descending Boston Center
04:02AM 42.7431 -74.0714 89° East 271 312 3,100 -840 Descending Boston Center
04:03AM 42.7439 -74.0175 89° East 253 291 2,700 -420 Descending Boston Center
04:03AM 42.7444 -73.9639 89° East 261 300 2,700 -840 Level Boston Center
04:04AM 42.7450 -73.9328 89° East 203 234 1,900 -1,080 Descending Boston Center
04:05AM 42.7478 -73.8678 87° East 166 191 1,100 -840 Descending Boston Center